sensor_id;sensor_type;location;lat;lon;timestamp;pressure;altitude;pressure_sealevel;temperature;humidity
48053;BME280;33824;51.600;5.718;2023-07-20T00:02:20;101199.03;;;18.47;83.05
48053;BME280;33824;51.600;5.718;2023-07-20T00:04:46;101193.41;;;18.48;82.74
48053;BME280;33824;51.600;5.718;2023-07-20T00:07:12;101196.72;;;18.50;82.76
48053;BME280;33824;51.600;5.718;2023-07-20T00:09:37;101212.91;;;18.50;82.61
48053;BME280;33824;51.600;5.718;2023-07-20T00:12:03;101215.50;;;18.32;83.21
48053;BME280;33824;51.600;5.718;2023-07-20T00:14:29;101216.63;;;18.11;83.95
48053;BME280;33824;51.600;5.718;2023-07-20T00:16:55;101216.75;;;17.92;84.86
48053;BME280;33824;51.600;5.718;2023-07-20T00:19:23;101230.22;;;17.85;86.01
48053;BME280;33824;51.600;5.718;2023-07-20T00:21:49;101216.75;;;17.85;86.40
48053;BME280;33824;51.600;5.718;2023-07-20T00:24:14;101212.19;;;17.86;86.45
48053;BME280;33824;51.600;5.718;2023-07-20T00:26:40;101215.72;;;17.86;87.09
48053;BME280;33824;51.600;5.718;2023-07-20T00:29:06;101206.34;;;17.89;86.97
48053;BME280;33824;51.600;5.718;2023-07-20T00:31:31;101221.72;;;17.82;87.50
48053;BME280;33824;51.600;5.718;2023-07-20T00:33:57;101225.72;;;17.66;88.68
48053;BME280;33824;51.600;5.718;2023-07-20T00:36:22;101221.19;;;17.60;89.47
48053;BME280;33824;51.600;5.718;2023-07-20T00:38:48;101219.50;;;17.59;89.37
48053;BME280;33824;51.600;5.718;2023-07-20T00:41:13;101207.06;;;17.58;89.41
48053;BME280;33824;51.600;5.718;2023-07-20T00:43:40;101203.72;;;17.56;89.89
48053;BME280;33824;51.600;5.718;2023-07-20T00:46:05;101209.13;;;17.56;89.75
48053;BME280;33824;51.600;5.718;2023-07-20T00:48:31;101210.81;;;17.57;90.09
48053;BME280;33824;51.600;5.718;2023-07-20T00:50:58;101207.69;;;17.60;90.33
48053;BME280;33824;51.600;5.718;2023-07-20T00:53:24;101215.34;;;17.63;90.45
48053;BME280;33824;51.600;5.718;2023-07-20T00:55:50;101213.28;;;17.65;90.82
48053;BME280;33824;51.600;5.718;2023-07-20T00:58:16;101215.31;;;17.69;90.75
48053;BME280;33824;51.600;5.718;2023-07-20T01:00:41;101205.19;;;17.71;90.93
48053;BME280;33824;51.600;5.718;2023-07-20T01:03:07;101207.63;;;17.73;90.90
48053;BME280;33824;51.600;5.718;2023-07-20T01:05:54;101217.22;;;17.62;91.38
48053;BME280;33824;51.600;5.718;2023-07-20T01:08:33;101217.03;;;17.64;91.30
48053;BME280;33824;51.600;5.718;2023-07-20T01:11:13;101218.28;;;17.61;91.44
48053;BME280;33824;51.600;5.718;2023-07-20T01:13:43;101221.16;;;17.66;91.72
48053;BME280;33824;51.600;5.718;2023-07-20T01:16:08;101219.91;;;17.62;92.11
48053;BME280;33824;51.600;5.718;2023-07-20T01:18:34;101220.34;;;17.53;92.81
48053;BME280;33824;51.600;5.718;2023-07-20T01:21:17;101210.59;;;17.39;92.56
48053;BME280;33824;51.600;5.718;2023-07-20T01:27:00;101225.31;;;17.16;94.11
48053;BME280;33824;51.600;5.718;2023-07-20T01:32:22;101220.56;;;17.05;94.05
48053;BME280;33824;51.600;5.718;2023-07-20T01:34:52;101224.09;;;16.99;93.77
48053;BME280;33824;51.600;5.718;2023-07-20T01:37:20;101215.78;;;17.01;93.91
48053;BME280;33824;51.600;5.718;2023-07-20T01:39:46;101224.94;;;17.00;94.09
48053;BME280;33824;51.600;5.718;2023-07-20T01:42:12;101230.72;;;17.03;94.62
48053;BME280;33824;51.600;5.718;2023-07-20T01:44:38;101229.28;;;17.07;94.76
48053;BME280;33824;51.600;5.718;2023-07-20T01:47:03;101227.84;;;17.11;94.73
48053;BME280;33824;51.600;5.718;2023-07-20T01:49:29;101219.13;;;17.09;95.08
48053;BME280;33824;51.600;5.718;2023-07-20T01:51:54;101223.28;;;17.12;95.34
48053;BME280;33824;51.600;5.718;2023-07-20T01:54:20;101219.94;;;17.16;95.43
48053;BME280;33824;51.600;5.718;2023-07-20T01:56:46;101228.84;;;17.23;95.70
48053;BME280;33824;51.600;5.718;2023-07-20T01:59:12;101223.69;;;17.22;95.59
48053;BME280;33824;51.600;5.718;2023-07-20T02:01:37;101234.25;;;17.17;95.41
48053;BME280;33824;51.600;5.718;2023-07-20T02:04:03;101235.91;;;17.11;95.78
48053;BME280;33824;51.600;5.718;2023-07-20T02:06:28;101240.06;;;17.07;95.89
48053;BME280;33824;51.600;5.718;2023-07-20T02:08:54;101245.03;;;17.10;95.99
48053;BME280;33824;51.600;5.718;2023-07-20T02:11:20;101236.13;;;17.10;96.92
48053;BME280;33824;51.600;5.718;2023-07-20T02:13:45;101239.22;;;17.13;96.54
48053;BME280;33824;51.600;5.718;2023-07-20T02:16:11;101241.72;;;17.15;96.58
48053;BME280;33824;51.600;5.718;2023-07-20T02:18:37;101240.06;;;17.14;97.19
48053;BME280;33824;51.600;5.718;2023-07-20T02:21:02;101239.03;;;17.15;97.22
48053;BME280;33824;51.600;5.718;2023-07-20T02:23:28;101240.66;;;17.16;97.23
48053;BME280;33824;51.600;5.718;2023-07-20T02:25:53;101241.91;;;17.20;97.56
48053;BME280;33824;51.600;5.718;2023-07-20T02:28:19;101237.56;;;17.19;97.33
48053;BME280;33824;51.600;5.718;2023-07-20T02:30:45;101237.78;;;17.11;98.13
48053;BME280;33824;51.600;5.718;2023-07-20T02:33:11;101240.47;;;17.04;98.63
48053;BME280;33824;51.600;5.718;2023-07-20T02:35:36;101239.63;;;16.97;98.16
48053;BME280;33824;51.600;5.718;2023-07-20T02:38:02;101246.44;;;16.93;98.66
48053;BME280;33824;51.600;5.718;2023-07-20T02:40:28;101243.38;;;16.96;98.27
48053;BME280;33824;51.600;5.718;2023-07-20T02:42:54;101242.72;;;17.01;98.30
48053;BME280;33824;51.600;5.718;2023-07-20T02:45:19;101249.59;;;17.03;98.27
48053;BME280;33824;51.600;5.718;2023-07-20T02:47:45;101248.34;;;17.06;98.11
48053;BME280;33824;51.600;5.718;2023-07-20T02:50:11;101254.38;;;17.08;98.39
48053;BME280;33824;51.600;5.718;2023-07-20T02:52:39;101262.22;;;17.09;97.98
48053;BME280;33824;51.600;5.718;2023-07-20T02:55:04;101254.78;;;17.11;98.02
48053;BME280;33824;51.600;5.718;2023-07-20T02:57:30;101262.63;;;17.13;98.34
48053;BME280;33824;51.600;5.718;2023-07-20T02:59:55;101265.13;;;17.14;98.23
48053;BME280;33824;51.600;5.718;2023-07-20T03:02:21;101270.31;;;17.16;98.15
48053;BME280;33824;51.600;5.718;2023-07-20T03:04:46;101277.78;;;17.14;98.28
48053;BME280;33824;51.600;5.718;2023-07-20T03:07:12;101275.50;;;17.17;98.43
48053;BME280;33824;51.600;5.718;2023-07-20T03:09:38;101274.47;;;17.18;98.18
48053;BME280;33824;51.600;5.718;2023-07-20T03:12:04;101282.97;;;17.22;98.25
48053;BME280;33824;51.600;5.718;2023-07-20T03:14:30;101282.56;;;17.18;98.58
48053;BME280;33824;51.600;5.718;2023-07-20T03:16:55;101286.69;;;17.21;98.59
48053;BME280;33824;51.600;5.718;2023-07-20T03:19:21;101293.75;;;17.22;98.29
48053;BME280;33824;51.600;5.718;2023-07-20T03:21:47;101291.47;;;17.25;97.72
48053;BME280;33824;51.600;5.718;2023-07-20T03:24:12;101291.88;;;17.22;97.89
48053;BME280;33824;51.600;5.718;2023-07-20T03:26:38;101291.25;;;17.20;98.08
48053;BME280;33824;51.600;5.718;2023-07-20T03:29:04;101287.31;;;17.16;98.02
48053;BME280;33824;51.600;5.718;2023-07-20T03:31:30;101294.38;;;17.11;98.57
48053;BME280;33824;51.600;5.718;2023-07-20T03:33:55;101300.97;;;17.08;98.41
48053;BME280;33824;51.600;5.718;2023-07-20T03:36:21;101301.38;;;17.05;98.25
48053;BME280;33824;51.600;5.718;2023-07-20T03:38:47;101295.59;;;17.02;98.47
48053;BME280;33824;51.600;5.718;2023-07-20T03:41:13;101307.38;;;17.01;98.68
48053;BME280;33824;51.600;5.718;2023-07-20T03:43:40;101301.38;;;16.92;98.30
48053;BME280;33824;51.600;5.718;2023-07-20T03:46:05;101301.34;;;16.86;98.18
48053;BME280;33824;51.600;5.718;2023-07-20T03:48:32;101300.91;;;16.75;98.12
48053;BME280;33824;51.600;5.718;2023-07-20T03:50:58;101308.56;;;16.65;98.32
48053;BME280;33824;51.600;5.718;2023-07-20T03:53:25;101308.75;;;16.57;98.16
48053;BME280;33824;51.600;5.718;2023-07-20T03:55:52;101314.06;;;16.51;98.09
48053;BME280;33824;51.600;5.718;2023-07-20T03:58:19;101312.59;;;16.48;98.04
48053;BME280;33824;51.600;5.718;2023-07-20T04:00:49;101311.75;;;16.41;98.03
48053;BME280;33824;51.600;5.718;2023-07-20T04:03:20;101315.25;;;16.42;97.94
48053;BME280;33824;51.600;5.718;2023-07-20T04:05:48;101313.19;;;16.44;98.16
48053;BME280;33824;51.600;5.718;2023-07-20T04:08:13;101309.47;;;16.38;98.25
48053;BME280;33824;51.600;5.718;2023-07-20T04:10:43;101323.72;;;16.32;98.03
48053;BME280;33824;51.600;5.718;2023-07-20T04:13:09;101322.50;;;16.35;98.20
48053;BME280;33824;51.600;5.718;2023-07-20T04:15:34;101326.41;;;16.32;98.00
48053;BME280;33824;51.600;5.718;2023-07-20T04:18:00;101325.59;;;16.31;98.08
48053;BME280;33824;51.600;5.718;2023-07-20T04:20:26;101327.00;;;16.27;98.55
48053;BME280;33824;51.600;5.718;2023-07-20T04:22:52;101323.88;;;16.24;98.88
48053;BME280;33824;51.600;5.718;2023-07-20T04:25:18;101322.66;;;16.26;98.83
48053;BME280;33824;51.600;5.718;2023-07-20T04:27:44;101329.56;;;16.42;98.98
48053;BME280;33824;51.600;5.718;2023-07-20T04:30:11;101320.91;;;16.53;98.92
48053;BME280;33824;51.600;5.718;2023-07-20T04:32:37;101320.16;;;16.66;98.83
48053;BME280;33824;51.600;5.718;2023-07-20T04:35:06;101324.75;;;16.78;98.87
48053;BME280;33824;51.600;5.718;2023-07-20T04:37:35;101323.34;;;16.89;98.64
48053;BME280;33824;51.600;5.718;2023-07-20T04:40:01;101323.53;;;16.94;98.92
48053;BME280;33824;51.600;5.718;2023-07-20T04:42:26;101320.44;;;16.97;98.96
48053;BME280;33824;51.600;5.718;2023-07-20T04:44:52;101316.53;;;17.00;98.94
48053;BME280;33824;51.600;5.718;2023-07-20T04:47:18;101322.94;;;17.05;99.04
48053;BME280;33824;51.600;5.718;2023-07-20T04:49:43;101329.81;;;17.14;99.13
48053;BME280;33824;51.600;5.718;2023-07-20T04:52:09;101325.88;;;17.17;99.39
48053;BME280;33824;51.600;5.718;2023-07-20T04:54:34;101331.06;;;17.18;99.35
48053;BME280;33824;51.600;5.718;2023-07-20T04:57:00;101321.13;;;17.19;99.23
48053;BME280;33824;51.600;5.718;2023-07-20T04:59:25;101328.56;;;17.17;99.08
48053;BME280;33824;51.600;5.718;2023-07-20T05:01:51;101325.66;;;17.25;99.19
48053;BME280;33824;51.600;5.718;2023-07-20T05:04:17;101332.53;;;17.41;99.53
48053;BME280;33824;51.600;5.718;2023-07-20T05:06:42;101323.59;;;17.47;99.33
48053;BME280;33824;51.600;5.718;2023-07-20T05:09:09;101323.81;;;17.52;98.95
48053;BME280;33824;51.600;5.718;2023-07-20T05:11:34;101324.00;;;17.50;98.75
48053;BME280;33824;51.600;5.718;2023-07-20T05:14:00;101324.03;;;17.37;98.59
48053;BME280;33824;51.600;5.718;2023-07-20T05:16:25;101327.34;;;17.33;98.40
48053;BME280;33824;51.600;5.718;2023-07-20T05:18:51;101329.19;;;17.25;98.06
48053;BME280;33824;51.600;5.718;2023-07-20T05:21:16;101339.34;;;17.23;98.27
48053;BME280;33824;51.600;5.718;2023-07-20T05:23:42;101330.03;;;17.26;98.10
48053;BME280;33824;51.600;5.718;2023-07-20T05:26:08;101332.13;;;17.31;98.13
48053;BME280;33824;51.600;5.718;2023-07-20T05:28:33;101330.66;;;17.41;97.99
48053;BME280;33824;51.600;5.718;2023-07-20T05:30:59;101333.16;;;17.49;98.01
48053;BME280;33824;51.600;5.718;2023-07-20T05:33:27;101333.16;;;17.56;97.77
48053;BME280;33824;51.600;5.718;2023-07-20T05:35:53;101327.75;;;17.56;98.07
48053;BME280;33824;51.600;5.718;2023-07-20T05:38:20;101331.28;;;17.56;97.97
48053;BME280;33824;51.600;5.718;2023-07-20T05:40:46;101332.97;;;17.64;97.64
48053;BME280;33824;51.600;5.718;2023-07-20T05:43:12;101334.63;;;17.65;97.23
48053;BME280;33824;51.600;5.718;2023-07-20T05:45:41;101333.56;;;17.53;97.13
48053;BME280;33824;51.600;5.718;2023-07-20T05:48:08;101339.81;;;17.60;97.27
48053;BME280;33824;51.600;5.718;2023-07-20T05:50:35;101340.66;;;17.60;97.67
48053;BME280;33824;51.600;5.718;2023-07-20T05:53:00;101351.22;;;17.68;97.65
48053;BME280;33824;51.600;5.718;2023-07-20T05:55:26;101357.47;;;17.69;97.58
48053;BME280;33824;51.600;5.718;2023-07-20T05:57:51;101357.66;;;17.74;97.58
48053;BME280;33824;51.600;5.718;2023-07-20T06:00:17;101354.94;;;17.81;97.53
48053;BME280;33824;51.600;5.718;2023-07-20T06:02:44;101357.66;;;17.87;97.24
48053;BME280;33824;51.600;5.718;2023-07-20T06:05:10;101367.41;;;17.95;97.35
48053;BME280;33824;51.600;5.718;2023-07-20T06:07:38;101370.09;;;17.95;97.55
48053;BME280;33824;51.600;5.718;2023-07-20T06:10:05;101368.81;;;18.10;97.08
48053;BME280;33824;51.600;5.718;2023-07-20T06:12:32;101369.00;;;18.22;97.03
48053;BME280;33824;51.600;5.718;2023-07-20T06:15:05;101375.66;;;18.26;96.89
48053;BME280;33824;51.600;5.718;2023-07-20T06:17:31;101367.50;;;18.39;96.56
48053;BME280;33824;51.600;5.718;2023-07-20T06:19:56;101369.97;;;18.47;96.27
48053;BME280;33824;51.600;5.718;2023-07-20T06:22:22;101367.50;;;18.52;96.41
48053;BME280;33824;51.600;5.718;2023-07-20T06:24:48;101373.69;;;18.59;96.32
48053;BME280;33824;51.600;5.718;2023-07-20T06:27:13;101375.59;;;18.52;95.68
48053;BME280;33824;51.600;5.718;2023-07-20T06:29:39;101374.34;;;18.42;94.88
48053;BME280;33824;51.600;5.718;2023-07-20T06:32:05;101381.16;;;18.64;95.07
48053;BME280;33824;51.600;5.718;2023-07-20T06:34:31;101374.06;;;18.69;94.76
48053;BME280;33824;51.600;5.718;2023-07-20T06:37:03;101377.44;;;18.45;94.67
48053;BME280;33824;51.600;5.718;2023-07-20T06:39:29;101381.16;;;18.51;94.33
48053;BME280;33824;51.600;5.718;2023-07-20T06:41:55;101370.38;;;18.51;94.04
48053;BME280;33824;51.600;5.718;2023-07-20T06:44:20;101377.22;;;18.47;93.55
48053;BME280;33824;51.600;5.718;2023-07-20T06:46:46;101376.38;;;18.66;93.23
48053;BME280;33824;51.600;5.718;2023-07-20T06:49:24;101376.13;;;18.74;92.43
48053;BME280;33824;51.600;5.718;2023-07-20T06:51:50;101369.94;;;19.05;92.17
48053;BME280;33824;51.600;5.718;2023-07-20T06:54:15;101375.78;;;19.33;91.32
48053;BME280;33824;51.600;5.718;2023-07-20T06:56:41;101377.72;;;19.57;90.44
48053;BME280;33824;51.600;5.718;2023-07-20T06:59:07;101377.78;;;19.51;89.40
48053;BME280;33824;51.600;5.718;2023-07-20T07:01:32;101379.25;;;19.72;90.11
48053;BME280;33824;51.600;5.718;2023-07-20T07:03:58;101375.09;;;19.94;88.77
48053;BME280;33824;51.600;5.718;2023-07-20T07:06:23;101371.81;;;19.92;87.49
48053;BME280;33824;51.600;5.718;2023-07-20T07:08:49;101371.75;;;19.98;87.21
48053;BME280;33824;51.600;5.718;2023-07-20T07:11:14;101373.56;;;20.04;86.58
48053;BME280;33824;51.600;5.718;2023-07-20T07:13:40;101372.47;;;20.12;86.16
48053;BME280;33824;51.600;5.718;2023-07-20T07:16:06;101377.69;;;20.07;84.77
48053;BME280;33824;51.600;5.718;2023-07-20T07:18:31;101379.72;;;19.93;84.09
48053;BME280;33824;51.600;5.718;2023-07-20T07:20:57;101383.56;;;20.04;83.77
48053;BME280;33824;51.600;5.718;2023-07-20T07:23:22;101381.53;;;20.18;83.29
48053;BME280;33824;51.600;5.718;2023-07-20T07:25:48;101382.38;;;20.18;82.55
48053;BME280;33824;51.600;5.718;2023-07-20T07:28:13;101392.63;;;20.16;82.24
48053;BME280;33824;51.600;5.718;2023-07-20T07:30:40;101388.25;;;19.90;81.80
48053;BME280;33824;51.600;5.718;2023-07-20T07:33:05;101388.09;;;19.60;82.06
48053;BME280;33824;51.600;5.718;2023-07-20T07:35:31;101391.91;;;19.53;82.76
48053;BME280;33824;51.600;5.718;2023-07-20T07:37:56;101389.13;;;19.59;83.41
48053;BME280;33824;51.600;5.718;2023-07-20T07:40:22;101387.44;;;19.65;82.93
48053;BME280;33824;51.600;5.718;2023-07-20T07:42:47;101391.84;;;19.59;83.16
48053;BME280;33824;51.600;5.718;2023-07-20T07:45:13;101391.19;;;19.64;82.94
48053;BME280;33824;51.600;5.718;2023-07-20T07:47:39;101397.44;;;19.64;82.91
48053;BME280;33824;51.600;5.718;2023-07-20T07:50:05;101393.13;;;19.57;82.26
48053;BME280;33824;51.600;5.718;2023-07-20T07:52:31;101393.06;;;19.63;82.13
48053;BME280;33824;51.600;5.718;2023-07-20T07:54:57;101398.31;;;20.08;81.19
48053;BME280;33824;51.600;5.718;2023-07-20T07:57:23;101405.38;;;20.52;79.53
48053;BME280;33824;51.600;5.718;2023-07-20T07:59:49;101396.16;;;20.89;78.87
48053;BME280;33824;51.600;5.718;2023-07-20T08:02:15;101397.41;;;21.05;77.43
48053;BME280;33824;51.600;5.718;2023-07-20T08:04:41;101406.47;;;21.59;77.00
48053;BME280;33824;51.600;5.718;2023-07-20T08:07:06;101399.28;;;21.64;75.40
48053;BME280;33824;51.600;5.718;2023-07-20T08:09:32;101405.03;;;21.56;74.32
48053;BME280;33824;51.600;5.718;2023-07-20T08:11:58;101410.72;;;21.66;73.77
48053;BME280;33824;51.600;5.718;2023-07-20T08:14:23;101406.38;;;21.77;73.66
48053;BME280;33824;51.600;5.718;2023-07-20T08:16:49;101411.06;;;21.58;72.35
48053;BME280;33824;51.600;5.718;2023-07-20T08:19:14;101413.66;;;21.53;73.43
48053;BME280;33824;51.600;5.718;2023-07-20T08:21:40;101416.28;;;21.71;73.36
48053;BME280;33824;51.600;5.718;2023-07-20T08:24:06;101405.84;;;22.10;72.80
48053;BME280;33824;51.600;5.718;2023-07-20T08:26:31;101408.09;;;22.01;71.58
48053;BME280;33824;51.600;5.718;2023-07-20T08:28:57;101410.03;;;21.71;71.23
48053;BME280;33824;51.600;5.718;2023-07-20T08:31:22;101409.88;;;21.66;72.18
48053;BME280;33824;51.600;5.718;2023-07-20T08:33:48;101404.78;;;21.58;71.04
48053;BME280;33824;51.600;5.718;2023-07-20T08:36:14;101407.00;;;21.37;70.24
48053;BME280;33824;51.600;5.718;2023-07-20T08:38:39;101414.75;;;21.22;70.59
48053;BME280;33824;51.600;5.718;2023-07-20T08:41:05;101414.59;;;21.17;70.98
48053;BME280;33824;51.600;5.718;2023-07-20T08:43:31;101405.03;;;21.15;70.21
48053;BME280;33824;51.600;5.718;2023-07-20T08:45:57;101402.28;;;21.33;70.38
48053;BME280;33824;51.600;5.718;2023-07-20T08:48:24;101401.06;;;21.70;69.64
48053;BME280;33824;51.600;5.718;2023-07-20T08:50:51;101400.09;;;21.76;69.76
48053;BME280;33824;51.600;5.718;2023-07-20T08:53:18;101396.00;;;21.85;68.98
48053;BME280;33824;51.600;5.718;2023-07-20T08:55:49;101396.84;;;22.44;69.21
48053;BME280;33824;51.600;5.718;2023-07-20T08:58:16;101391.31;;;23.19;67.04
48053;BME280;33824;51.600;5.718;2023-07-20T09:00:43;101385.28;;;23.45;65.58
48053;BME280;33824;51.600;5.718;2023-07-20T09:03:09;101386.03;;;23.29;64.78
48053;BME280;33824;51.600;5.718;2023-07-20T09:05:35;101387.59;;;23.08;64.65
48053;BME280;33824;51.600;5.718;2023-07-20T09:08:01;101390.56;;;22.95;64.96
48053;BME280;33824;51.600;5.718;2023-07-20T09:10:29;101393.25;;;22.78;65.16
48053;BME280;33824;51.600;5.718;2023-07-20T09:12:54;101394.53;;;22.64;65.18
48053;BME280;33824;51.600;5.718;2023-07-20T09:15:22;101390.22;;;22.52;65.28
48053;BME280;33824;51.600;5.718;2023-07-20T09:17:48;101394.34;;;22.42;65.25
48053;BME280;33824;51.600;5.718;2023-07-20T09:20:16;101397.31;;;22.41;65.51
48053;BME280;33824;51.600;5.718;2023-07-20T09:22:43;101393.78;;;22.29;65.44
48053;BME280;33824;51.600;5.718;2023-07-20T09:25:15;101390.84;;;22.19;65.47
48053;BME280;33824;51.600;5.718;2023-07-20T09:27:43;101397.09;;;22.19;65.92
48053;BME280;33824;51.600;5.718;2023-07-20T09:30:10;101388.81;;;22.26;65.85
48053;BME280;33824;51.600;5.718;2023-07-20T09:32:40;101392.25;;;22.33;65.81
48053;BME280;33824;51.600;5.718;2023-07-20T09:35:06;101392.47;;;22.31;66.29
48053;BME280;33824;51.600;5.718;2023-07-20T09:37:33;101397.56;;;22.28;66.00
48053;BME280;33824;51.600;5.718;2023-07-20T09:39:59;101391.91;;;22.29;65.34
48053;BME280;33824;51.600;5.718;2023-07-20T09:42:25;101384.78;;;22.52;65.14
48053;BME280;33824;51.600;5.718;2023-07-20T09:44:52;101387.44;;;22.86;64.58
48053;BME280;33824;51.600;5.718;2023-07-20T09:47:22;101380.19;;;23.20;61.51
48053;BME280;33824;51.600;5.718;2023-07-20T09:49:48;101384.47;;;23.45;62.67
48053;BME280;33824;51.600;5.718;2023-07-20T09:52:14;101378.34;;;23.71;61.39
48053;BME280;33824;51.600;5.718;2023-07-20T09:54:44;101369.28;;;23.99;60.13
48053;BME280;33824;51.600;5.718;2023-07-20T09:57:11;101372.38;;;24.24;60.28
48053;BME280;33824;51.600;5.718;2023-07-20T09:59:38;101370.06;;;24.54;59.84
48053;BME280;33824;51.600;5.718;2023-07-20T10:02:13;101362.13;;;24.74;58.45
48053;BME280;33824;51.600;5.718;2023-07-20T10:04:41;101362.44;;;25.00;57.70
48053;BME280;33824;51.600;5.718;2023-07-20T10:07:10;101357.97;;;25.15;56.63
48053;BME280;33824;51.600;5.718;2023-07-20T10:09:39;101366.09;;;25.37;55.59
48053;BME280;33824;51.600;5.718;2023-07-20T10:12:07;101357.44;;;25.45;56.03
48053;BME280;33824;51.600;5.718;2023-07-20T10:14:35;101361.97;;;25.61;55.47
48053;BME280;33824;51.600;5.718;2023-07-20T10:17:05;101355.66;;;25.61;54.54
48053;BME280;33824;51.600;5.718;2023-07-20T10:19:44;101360.75;;;25.20;54.94
48053;BME280;33824;51.600;5.718;2023-07-20T10:22:14;101353.78;;;25.35;54.60
48053;BME280;33824;51.600;5.718;2023-07-20T10:24:45;101356.34;;;25.78;53.66
48053;BME280;33824;51.600;5.718;2023-07-20T10:27:11;101350.56;;;26.11;53.58
48053;BME280;33824;51.600;5.718;2023-07-20T10:29:36;101345.03;;;26.43;53.01
48053;BME280;33824;51.600;5.718;2023-07-20T10:32:03;101346.09;;;26.42;51.88
48053;BME280;33824;51.600;5.718;2023-07-20T10:34:29;101345.56;;;26.40;51.50
48053;BME280;33824;51.600;5.718;2023-07-20T10:36:55;101339.00;;;25.99;51.32
48053;BME280;33824;51.600;5.718;2023-07-20T10:39:25;101346.38;;;25.94;49.80
48053;BME280;33824;51.600;5.718;2023-07-20T10:42:09;101342.38;;;25.43;50.13
48053;BME280;33824;51.600;5.718;2023-07-20T10:44:39;101341.75;;;25.62;51.55
48053;BME280;33824;51.600;5.718;2023-07-20T10:47:12;101338.63;;;25.81;51.64
48053;BME280;33824;51.600;5.718;2023-07-20T10:49:57;101333.78;;;25.93;46.42
48053;BME280;33824;51.600;5.718;2023-07-20T10:52:23;101329.28;;;25.76;50.12
48053;BME280;33824;51.600;5.718;2023-07-20T10:54:49;101326.34;;;25.83;50.48
48053;BME280;33824;51.600;5.718;2023-07-20T10:57:28;101326.34;;;25.83;49.60
48053;BME280;33824;51.600;5.718;2023-07-20T11:00:18;101323.44;;;25.95;49.11
48053;BME280;33824;51.600;5.718;2023-07-20T11:02:48;101333.38;;;25.74;51.62
48053;BME280;33824;51.600;5.718;2023-07-20T11:08:03;101320.78;;;25.36;50.76
48053;BME280;33824;51.600;5.718;2023-07-20T11:10:29;101329.22;;;25.03;50.98
48053;BME280;33824;51.600;5.718;2023-07-20T11:13:20;101322.91;;;25.02;51.32
48053;BME280;33824;51.600;5.718;2023-07-20T11:16:07;101330.31;;;25.34;50.53
48053;BME280;33824;51.600;5.718;2023-07-20T11:18:34;101326.75;;;25.33;50.23
48053;BME280;33824;51.600;5.718;2023-07-20T11:21:07;101326.22;;;25.36;50.88
48053;BME280;33824;51.600;5.718;2023-07-20T11:23:33;101318.84;;;25.63;51.63
48053;BME280;33824;51.600;5.718;2023-07-20T11:25:59;101306.00;;;25.32;50.40
48053;BME280;33824;51.600;5.718;2023-07-20T11:28:25;101310.22;;;25.45;49.30
48053;BME280;33824;51.600;5.718;2023-07-20T11:30:52;101309.38;;;25.44;49.44
48053;BME280;33824;51.600;5.718;2023-07-20T11:33:19;101304.50;;;25.83;49.21
48053;BME280;33824;51.600;5.718;2023-07-20T11:35:45;101299.03;;;25.83;48.74
48053;BME280;33824;51.600;5.718;2023-07-20T11:38:16;101303.56;;;25.67;50.06
48053;BME280;33824;51.600;5.718;2023-07-20T11:40:45;101295.41;;;25.72;48.59
48053;BME280;33824;51.600;5.718;2023-07-20T11:43:13;101297.03;;;25.37;48.95
48053;BME280;33824;51.600;5.718;2023-07-20T11:45:39;101285.63;;;25.13;49.17
48053;BME280;33824;51.600;5.718;2023-07-20T11:48:05;101294.44;;;24.93;50.00
48053;BME280;33824;51.600;5.718;2023-07-20T11:50:31;101292.94;;;24.80;50.56
48053;BME280;33824;51.600;5.718;2023-07-20T11:52:57;101295.16;;;24.62;50.36
48053;BME280;33824;51.600;5.718;2023-07-20T11:55:23;101295.78;;;24.91;50.37
48053;BME280;33824;51.600;5.718;2023-07-20T11:58:05;101300.44;;;24.68;48.08
48053;BME280;33824;51.600;5.718;2023-07-20T12:00:31;101297.94;;;24.40;50.56
48053;BME280;33824;51.600;5.718;2023-07-20T12:02:58;101291.16;;;24.69;50.43
48053;BME280;33824;51.600;5.718;2023-07-20T12:05:24;101282.47;;;24.94;50.76
48053;BME280;33824;51.600;5.718;2023-07-20T12:07:50;101282.66;;;25.14;50.29
48053;BME280;33824;51.600;5.718;2023-07-20T12:10:24;101283.16;;;25.11;48.39
48053;BME280;33824;51.600;5.718;2023-07-20T12:12:50;101287.31;;;25.51;49.53
48053;BME280;33824;51.600;5.718;2023-07-20T12:15:16;101278.69;;;25.64;48.98
48053;BME280;33824;51.600;5.718;2023-07-20T12:17:46;101277.34;;;25.66;48.23
48053;BME280;33824;51.600;5.718;2023-07-20T12:20:12;101282.31;;;25.74;49.01
48053;BME280;33824;51.600;5.718;2023-07-20T12:22:39;101292.13;;;25.70;48.77
48053;BME280;33824;51.600;5.718;2023-07-20T12:25:06;101285.78;;;25.65;49.33
48053;BME280;33824;51.600;5.718;2023-07-20T12:27:31;101283.59;;;25.62;49.35
48053;BME280;33824;51.600;5.718;2023-07-20T12:29:57;101283.28;;;25.58;49.51
48053;BME280;33824;51.600;5.718;2023-07-20T12:32:23;101270.22;;;25.65;48.99
48053;BME280;33824;51.600;5.718;2023-07-20T12:34:48;101279.53;;;25.69;49.12
48053;BME280;33824;51.600;5.718;2023-07-20T12:37:17;101287.69;;;25.64;49.65
48053;BME280;33824;51.600;5.718;2023-07-20T12:39:43;101277.97;;;25.84;50.02
48053;BME280;33824;51.600;5.718;2023-07-20T12:42:12;101276.16;;;25.99;49.60
48053;BME280;33824;51.600;5.718;2023-07-20T12:44:40;101278.09;;;26.04;49.18
48053;BME280;33824;51.600;5.718;2023-07-20T12:47:06;101265.53;;;26.03;49.29
48053;BME280;33824;51.600;5.718;2023-07-20T12:49:31;101279.25;;;26.13;49.69
48053;BME280;33824;51.600;5.718;2023-07-20T12:51:57;101272.97;;;26.12;49.19
48053;BME280;33824;51.600;5.718;2023-07-20T12:54:22;101270.97;;;26.03;47.97
48053;BME280;33824;51.600;5.718;2023-07-20T12:56:48;101266.38;;;26.08;47.90
48053;BME280;33824;51.600;5.718;2023-07-20T12:59:13;101269.38;;;26.07;48.08